createdAt,value
2018-01-17T00:01:12.684Z,97250.75
2018-01-17T00:02:50.358Z,97246.86
2018-01-17T00:04:29.128Z,97065.36
2018-01-17T00:06:05.570Z,97035.08
2018-01-17T00:07:42.486Z,97074.06
2018-01-17T00:09:18.952Z,97011.50
2018-01-17T00:10:55.565Z,97042.81
2018-01-17T00:12:32.991Z,97069.28
2018-01-17T00:14:10.567Z,97008.03
2018-01-17T00:15:49.177Z,97024.16
2018-01-17T00:17:25.779Z,97026.34
2018-01-17T00:19:02.478Z,97023.70
2018-01-17T00:20:40.399Z,96939.59
2018-01-17T00:22:17.643Z,96941.72
2018-01-17T00:23:54.255Z,96770.45
2018-01-17T00:25:30.731Z,96689.58
2018-01-17T00:27:08.202Z,96759.23
2018-01-17T00:28:44.758Z,96825.88
2018-01-17T00:30:22.052Z,96833.75
2018-01-17T00:31:58.667Z,96829.36
2018-01-17T00:33:35.807Z,96735.34
2018-01-17T00:35:12.450Z,96625.52
2018-01-17T00:36:49.813Z,96646.27
2018-01-17T00:38:26.307Z,96732.86
2018-01-17T00:40:02.836Z,96862.86
2018-01-17T00:41:39.314Z,96943.47
2018-01-17T00:43:16.473Z,96962.50
2018-01-17T00:44:52.854Z,96946.42
2018-01-17T00:46:30.756Z,96922.73
2018-01-17T00:48:07.962Z,96956.91
2018-01-17T00:49:44.286Z,96880.17
2018-01-17T00:51:20.922Z,96962.19
2018-01-17T00:52:57.740Z,97016.31
2018-01-17T00:54:34.106Z,96863.17
2018-01-17T00:56:10.692Z,96823.34
2018-01-17T00:57:47.244Z,96769.64
2018-01-17T00:59:24.207Z,96724.68
2018-01-17T01:01:01.381Z,96852.06
2018-01-17T01:02:38.706Z,96809.41
2018-01-17T01:04:19.272Z,96851.13
2018-01-17T01:05:56.847Z,96775.69
2018-01-17T01:07:33.304Z,96814.73
2018-01-17T01:09:09.763Z,96750.12
2018-01-17T01:10:46.335Z,96732.31
2018-01-17T01:12:23.031Z,96738.84
2018-01-17T01:13:59.439Z,96656.54
2018-01-17T01:15:36.591Z,96650.49
2018-01-17T01:17:13.038Z,96662.16
2018-01-17T01:18:49.851Z,96667.32
2018-01-17T01:20:27.091Z,96799.91
2018-01-17T01:22:03.546Z,96740.58
2018-01-17T01:23:40.054Z,96728.91
2018-01-17T01:25:16.498Z,96717.16
2018-01-17T01:26:52.922Z,96793.00
2018-01-17T01:28:29.389Z,96755.70
2018-01-17T01:30:07.222Z,96752.69
2018-01-17T01:31:46.492Z,96757.38
2018-01-17T01:33:24.113Z,96703.30
2018-01-17T01:35:00.475Z,96601.15
2018-01-17T01:36:36.968Z,96575.64
2018-01-17T01:38:14.648Z,96581.30
2018-01-17T01:39:51.166Z,96524.58
2018-01-17T01:41:27.722Z,96539.80
2018-01-17T01:43:06.614Z,96589.52
2018-01-17T01:44:43.746Z,96669.11
2018-01-17T01:46:20.162Z,96680.34
2018-01-17T01:47:56.634Z,96670.81
2018-01-17T01:49:33.758Z,96729.29
2018-01-17T01:51:12.683Z,96728.86
2018-01-17T01:52:49.322Z,96603.31
2018-01-17T01:54:25.823Z,96583.47
2018-01-17T01:56:02.489Z,96595.56
2018-01-17T01:57:40.209Z,96597.62
2018-01-17T01:59:17.642Z,96601.11
2018-01-17T02:00:54.023Z,96597.62
2018-01-17T02:02:31.307Z,96598.52
2018-01-17T02:04:09.582Z,96567.81
2018-01-17T02:05:46.400Z,96554.91
2018-01-17T02:07:22.935Z,96605.02
2018-01-17T02:08:59.978Z,96633.59
2018-01-17T02:10:36.887Z,96665.97
2018-01-17T02:12:13.318Z,96685.05
2018-01-17T02:13:49.850Z,96633.13
2018-01-17T02:15:27.482Z,96617.04
2018-01-17T02:17:05.376Z,96665.16
2018-01-17T02:18:41.859Z,96632.66
2018-01-17T02:20:18.661Z,96584.28
2018-01-17T02:21:56.467Z,96519.34
2018-01-17T02:23:33.027Z,96507.65
2018-01-17T02:25:10.355Z,96446.73
2018-01-17T02:26:46.760Z,96405.18
2018-01-17T02:28:23.141Z,96323.91
2018-01-17T02:29:59.818Z,96295.52
2018-01-17T02:31:38.362Z,96263.95
2018-01-17T02:33:15.580Z,96196.52
2018-01-17T02:34:51.952Z,96177.10
2018-01-17T02:36:29.661Z,96114.14
2018-01-17T02:38:06.877Z,96085.63
2018-01-17T02:39:56.267Z,96105.53
2018-01-17T02:41:32.687Z,96050.24
2018-01-17T02:43:10.362Z,95994.63
2018-01-17T02:44:46.832Z,95921.83
2018-01-17T02:46:23.537Z,95864.05
2018-01-17T02:48:00.033Z,95887.40
2018-01-17T02:49:36.746Z,95950.31
2018-01-17T02:51:13.167Z,96016.22
2018-01-17T02:52:49.915Z,96102.94
2018-01-17T02:54:26.174Z,96168.06
2018-01-17T02:56:03.346Z,96180.54
2018-01-17T02:57:40.485Z,96140.34
2018-01-17T02:59:17.911Z,95966.17
2018-01-17T03:00:54.986Z,95908.51
2018-01-17T03:02:31.699Z,95840.45
2018-01-17T03:04:08.427Z,95848.13
2018-01-17T03:05:44.917Z,95887.78
2018-01-17T03:07:21.375Z,95855.91
2018-01-17T03:08:58.219Z,95817.56
2018-01-17T03:10:34.620Z,95789.56
2018-01-17T03:12:11.013Z,95720.33
2018-01-17T03:13:48.192Z,95695.73
2018-01-17T03:15:25.160Z,95719.86
2018-01-17T03:17:01.518Z,95779.27
2018-01-17T03:18:37.896Z,95758.52
2018-01-17T03:20:14.298Z,95681.55
2018-01-17T03:21:50.803Z,95629.91
2018-01-17T03:23:28.709Z,95639.77
2018-01-17T03:25:06.100Z,95687.52
2018-01-17T03:26:42.529Z,95698.36
2018-01-17T03:28:19.246Z,95682.39
2018-01-17T03:29:55.658Z,95652.68
2018-01-17T03:31:32.741Z,95656.58
2018-01-17T03:33:09.764Z,95629.88
2018-01-17T03:34:47.674Z,95667.75
2018-01-17T03:36:24.830Z,95685.81
2018-01-17T03:38:01.179Z,95683.23
2018-01-17T03:39:37.559Z,95632.41
2018-01-17T03:41:14.365Z,95622.98
2018-01-17T03:42:51.081Z,95469.58
2018-01-17T03:44:28.296Z,95519.09
2018-01-17T03:46:05.340Z,95555.08
2018-01-17T03:47:43.057Z,95535.80
2018-01-17T03:49:19.407Z,95602.75
2018-01-17T03:50:55.800Z,95670.71
2018-01-17T03:52:32.798Z,95733.12
2018-01-17T03:54:10.986Z,95726.67
2018-01-17T03:55:47.339Z,95761.15
2018-01-17T03:57:23.702Z,95775.26
2018-01-17T03:59:00.807Z,95772.80
2018-01-17T04:00:37.501Z,95766.69
2018-01-17T04:02:13.843Z,95704.78
2018-01-17T04:03:50.225Z,95749.08
2018-01-17T04:05:26.546Z,95818.92
2018-01-17T04:07:02.856Z,95871.77
2018-01-17T04:08:39.199Z,95889.52
2018-01-17T04:10:15.458Z,95887.73
2018-01-17T04:11:51.816Z,95812.36
2018-01-17T04:13:28.383Z,95798.09
2018-01-17T04:15:06.097Z,95810.66
2018-01-17T04:16:42.483Z,95813.72
2018-01-17T04:18:18.823Z,95828.29
2018-01-17T04:19:55.542Z,95817.48
2018-01-17T04:21:32.898Z,95796.42
2018-01-17T04:23:10.078Z,95777.11
2018-01-17T04:24:46.466Z,95721.12
2018-01-17T04:26:23.239Z,95758.57
2018-01-17T04:27:59.658Z,95868.88
2018-01-17T04:29:36.743Z,95917.88
2018-01-17T04:31:13.177Z,95948.95
2018-01-17T04:32:49.929Z,95954.59
2018-01-17T04:34:26.449Z,95963.59
2018-01-17T04:36:02.832Z,95951.11
2018-01-17T04:37:39.350Z,95933.31
2018-01-17T04:39:16.224Z,95933.78
2018-01-17T04:40:53.288Z,95882.19
2018-01-17T04:42:30.460Z,95822.61
2018-01-17T04:44:07.520Z,95754.20
2018-01-17T04:45:44.449Z,95605.33
2018-01-17T04:47:20.730Z,95632.03
2018-01-17T04:48:57.244Z,95601.22
2018-01-17T04:50:33.695Z,95690.15
2018-01-17T04:52:10.085Z,95645.32
2018-01-17T04:53:47.364Z,95655.73
2018-01-17T04:55:23.744Z,95717.23
2018-01-17T04:57:00.248Z,95740.39
2018-01-17T04:58:37.139Z,95792.53
2018-01-17T05:00:15.266Z,95728.45
2018-01-17T05:01:51.858Z,95695.73
2018-01-17T05:03:28.303Z,95700.47
2018-01-17T05:05:05.490Z,95600.68
2018-01-17T05:06:41.874Z,95575.25
2018-01-17T05:08:18.390Z,95582.61
2018-01-17T05:09:55.154Z,95598.48
2018-01-17T05:11:31.787Z,95607.58
2018-01-17T05:13:08.779Z,95674.31
2018-01-17T05:14:45.308Z,95690.99
2018-01-17T05:16:22.415Z,95695.22
2018-01-17T05:17:59.066Z,95652.26
2018-01-17T05:19:36.145Z,95622.13
2018-01-17T05:21:12.544Z,95588.20
2018-01-17T05:22:48.903Z,95566.66
2018-01-17T05:24:26.587Z,95592.05
2018-01-17T05:26:03.753Z,95644.52
2018-01-17T05:27:40.876Z,95626.36
2018-01-17T05:29:18.005Z,95638.08
2018-01-17T05:30:54.829Z,95554.36
2018-01-17T05:32:32.019Z,95605.54
2018-01-17T05:34:08.501Z,95608.42
2018-01-17T05:35:44.899Z,95620.40
2018-01-17T05:37:21.830Z,95657.46
2018-01-17T05:38:59.001Z,95666.44
2018-01-17T05:40:35.463Z,95722.91
2018-01-17T05:42:11.799Z,95711.19
2018-01-17T05:43:49.726Z,95749.59
2018-01-17T05:45:26.086Z,95829.98
2018-01-17T05:47:02.652Z,95791.64
2018-01-17T05:48:39.311Z,95843.03
2018-01-17T05:50:16.240Z,95859.34
2018-01-17T05:51:53.454Z,95794.22
2018-01-17T05:53:30.058Z,95771.02
2018-01-17T05:55:06.536Z,95580.03
2018-01-17T05:56:43.310Z,95577.48
2018-01-17T05:58:20.419Z,95599.45
2018-01-17T05:59:56.834Z,95558.13
2018-01-17T06:01:33.251Z,95545.64
2018-01-17T06:03:09.547Z,95525.56
2018-01-17T06:04:45.883Z,95625.55
2018-01-17T06:06:23.144Z,95740.06
2018-01-17T06:08:00.422Z,95799.82
2018-01-17T06:09:36.868Z,95863.20
2018-01-17T06:11:13.228Z,95853.29
2018-01-17T06:12:50.477Z,95824.05
2018-01-17T06:14:27.706Z,95883.03
2018-01-17T06:16:05.233Z,95805.03
2018-01-17T06:17:41.628Z,95946.80
2018-01-17T06:19:17.952Z,95828.29
2018-01-17T06:20:56.315Z,95878.84
2018-01-17T06:22:32.825Z,95964.94
2018-01-17T06:24:09.446Z,96080.41
2018-01-17T06:25:45.851Z,96075.70
2018-01-17T06:27:22.449Z,96036.11
2018-01-17T06:28:58.919Z,95995.94
2018-01-17T06:30:36.717Z,96021.30
2018-01-17T06:32:12.610Z,95967.53
2018-01-17T06:33:49.159Z,95948.91
2018-01-17T06:35:26.836Z,95952.00
2018-01-17T06:37:04.219Z,95764.16
2018-01-17T06:38:40.634Z,95739.68
2018-01-17T06:40:17.214Z,95803.41
2018-01-17T06:41:53.552Z,95823.16
2018-01-17T06:43:36.070Z,95837.82
2018-01-17T06:45:13.983Z,95930.51
2018-01-17T06:46:50.634Z,95865.91
2018-01-17T06:48:27.077Z,95787.88
2018-01-17T06:50:03.519Z,95720.75
2018-01-17T06:51:39.975Z,95600.76
2018-01-17T06:53:17.649Z,95506.66
2018-01-17T06:54:54.071Z,95555.20
2018-01-17T06:56:30.461Z,95661.78
2018-01-17T06:58:07.025Z,95698.78
2018-01-17T06:59:43.676Z,95720.75
2018-01-17T07:01:21.002Z,95668.25
2018-01-17T07:02:57.329Z,95557.70
2018-01-17T07:04:33.747Z,95671.27
2018-01-17T07:06:10.623Z,95755.17
2018-01-17T07:07:46.967Z,95766.36
2018-01-17T07:09:23.387Z,95818.45
2018-01-17T07:11:10.480Z,95792.11
2018-01-17T07:12:47.445Z,95784.41
2018-01-17T07:14:23.786Z,95728.62
2018-01-17T07:16:00.109Z,95642.91
2018-01-17T07:19:19.113Z,95604.23
2018-01-17T07:20:55.405Z,95633.43
2018-01-17T07:22:31.842Z,95600.22
2018-01-17T07:24:08.175Z,95547.89
2018-01-17T07:25:44.897Z,95691.06
2018-01-17T07:27:21.377Z,95648.79
2018-01-17T07:28:57.838Z,95723.75
2018-01-17T07:30:34.897Z,95660.47
2018-01-17T07:32:12.472Z,95536.64
2018-01-17T07:33:48.816Z,95574.53
2018-01-17T07:35:25.328Z,95499.67
2018-01-17T07:37:02.179Z,95515.33
2018-01-17T07:38:38.937Z,95641.64
2018-01-17T07:40:15.415Z,95657.04
2018-01-17T07:41:52.543Z,95734.13
2018-01-17T07:43:28.868Z,95818.45
2018-01-17T07:45:06.726Z,95671.64
2018-01-17T07:46:45.640Z,95683.33
2018-01-17T07:48:22.286Z,95731.92
2018-01-17T07:49:58.717Z,95752.97
2018-01-17T07:51:35.669Z,95808.55
2018-01-17T07:53:12.742Z,95813.72
2018-01-17T07:54:49.323Z,95833.08
2018-01-17T07:56:26.599Z,95824.52
2018-01-17T07:58:04.085Z,95793.00
2018-01-17T07:59:40.542Z,95860.28
2018-01-17T08:01:16.983Z,95812.36
2018-01-17T08:02:53.256Z,95850.87
2018-01-17T08:04:38.794Z,95916.69
2018-01-17T08:06:15.220Z,95766.36
2018-01-17T08:07:51.548Z,95841.76
2018-01-17T08:09:27.891Z,95768.94
2018-01-17T08:11:05.612Z,95802.91
2018-01-17T08:12:42.032Z,95813.72
2018-01-17T08:14:19.239Z,95757.33
2018-01-17T08:15:56.400Z,95687.17
2018-01-17T08:17:33.095Z,95706.98
2018-01-17T08:19:09.657Z,95566.38
2018-01-17T08:20:46.860Z,95620.94
2018-01-17T08:22:24.256Z,95651.92
2018-01-17T08:24:00.942Z,95718.64
2018-01-17T08:25:37.354Z,95613.20
2018-01-17T08:27:13.718Z,95601.60
2018-01-17T08:28:50.044Z,95569.80
2018-01-17T08:30:26.810Z,95541.84
2018-01-17T08:32:03.926Z,95663.89
2018-01-17T08:33:40.194Z,95592.98
2018-01-17T08:35:17.439Z,95690.57
2018-01-17T08:36:57.649Z,95662.67
2018-01-17T08:38:34.062Z,95702.72
2018-01-17T08:40:10.410Z,95594.24
2018-01-17T08:41:46.816Z,95556.94
2018-01-17T08:43:23.573Z,95675.62
2018-01-17T08:44:59.942Z,95724.64
2018-01-17T08:46:37.192Z,95698.40
2018-01-17T08:48:13.643Z,95795.70
2018-01-17T08:49:50.158Z,95822.73
2018-01-17T08:51:28.385Z,95774.99
2018-01-17T08:53:04.746Z,95748.27
2018-01-17T08:54:41.920Z,95882.19
2018-01-17T08:56:18.611Z,95857.23
2018-01-17T08:57:54.922Z,95725.54
2018-01-17T08:59:31.228Z,95692.38
2018-01-17T09:01:07.859Z,95693.62
2018-01-17T09:02:44.663Z,95764.71
2018-01-17T09:04:20.998Z,95815.78
2018-01-17T09:05:58.106Z,95914.10
2018-01-17T09:07:34.553Z,95896.39
2018-01-17T09:09:10.883Z,95943.48
2018-01-17T09:10:47.262Z,96010.66
2018-01-17T09:12:23.679Z,95981.30
2018-01-17T09:13:59.935Z,95784.09
2018-01-17T09:15:37.056Z,95632.16
2018-01-17T09:17:13.554Z,95602.54
2018-01-17T09:18:50.010Z,95744.42
2018-01-17T09:20:26.772Z,95805.50
2018-01-17T09:22:03.079Z,95793.97
2018-01-17T09:23:39.398Z,95771.05
2018-01-17T09:25:16.274Z,95761.62
2018-01-17T09:26:53.069Z,95739.68
2018-01-17T09:28:30.150Z,95678.55
2018-01-17T09:30:08.268Z,95642.02
2018-01-17T09:31:44.764Z,95745.35
2018-01-17T09:33:21.621Z,95746.16
2018-01-17T09:34:57.975Z,95897.28
2018-01-17T09:36:34.409Z,95917.58
2018-01-17T09:38:10.783Z,95948.66
2018-01-17T09:39:48.490Z,96008.53
2018-01-17T09:41:26.535Z,95889.56
2018-01-17T09:43:02.874Z,95894.34
2018-01-17T09:44:39.368Z,95918.94
2018-01-17T09:46:16.122Z,95832.34
2018-01-17T09:47:52.490Z,95958.49
2018-01-17T09:49:29.403Z,95924.45
2018-01-17T09:51:05.959Z,96020.88
2018-01-17T09:52:42.798Z,95889.09
2018-01-17T09:54:19.841Z,95843.03
2018-01-17T09:55:56.231Z,95938.27
2018-01-17T09:57:32.460Z,96022.75
2018-01-17T09:59:09.770Z,96034.80
2018-01-17T10:00:46.141Z,95846.16
2018-01-17T10:02:22.471Z,95859.47
2018-01-17T10:03:58.777Z,95837.44
2018-01-17T10:05:35.572Z,95664.41
2018-01-17T10:07:12.000Z,95670.03
2018-01-17T10:08:48.369Z,95669.66
2018-01-17T10:10:24.686Z,95765.52
2018-01-17T10:12:02.331Z,95732.86
2018-01-17T10:13:38.783Z,95733.41
2018-01-17T10:15:16.406Z,95800.41
2018-01-17T10:16:52.777Z,95876.17
2018-01-17T10:18:29.425Z,95775.84
2018-01-17T10:20:05.943Z,95750.09
2018-01-17T10:21:43.129Z,95814.60
2018-01-17T10:23:19.479Z,95807.35
2018-01-17T10:24:57.463Z,95805.19
2018-01-17T10:26:33.791Z,95936.06
2018-01-17T10:28:10.962Z,95907.66
2018-01-17T10:31:17.944Z,96091.73
2018-01-17T10:32:54.395Z,96183.52
2018-01-17T10:34:30.840Z,96213.37
2018-01-17T10:36:07.514Z,96016.22
2018-01-17T10:37:44.174Z,96079.64
2018-01-17T10:39:20.522Z,96002.05
2018-01-17T10:40:56.863Z,95962.05
2018-01-17T10:42:33.175Z,96076.66
2018-01-17T10:44:11.046Z,96096.52
2018-01-17T10:45:47.423Z,95999.92
2018-01-17T10:47:23.811Z,95982.23
2018-01-17T10:49:00.312Z,96051.25
2018-01-17T10:50:37.860Z,96088.30
2018-01-17T10:52:14.199Z,96098.65
2018-01-17T10:53:50.617Z,95996.06
2018-01-17T10:55:27.776Z,95959.80
2018-01-17T10:57:05.492Z,96079.14
2018-01-17T10:58:41.846Z,96050.24
2018-01-17T11:00:20.335Z,96060.63
2018-01-17T11:01:56.783Z,95972.74
2018-01-17T11:03:33.840Z,96070.17
2018-01-17T11:05:10.776Z,96055.50
2018-01-17T11:06:47.196Z,95931.78
2018-01-17T11:08:23.711Z,96013.63
2018-01-17T11:10:00.793Z,96006.80
2018-01-17T11:11:37.175Z,95980.97
2018-01-17T11:13:13.653Z,95970.54
2018-01-17T11:14:50.167Z,95978.80
2018-01-17T11:16:28.855Z,96018.00
2018-01-17T11:18:06.414Z,96036.96
2018-01-17T11:19:42.889Z,96063.64
2018-01-17T11:21:19.430Z,96062.38
2018-01-17T11:22:56.390Z,95954.25
2018-01-17T11:24:32.883Z,95924.02
2018-01-17T11:26:09.818Z,95922.41
2018-01-17T11:27:47.037Z,95859.12
2018-01-17T11:29:23.924Z,95908.64
2018-01-17T11:31:00.524Z,95997.80
2018-01-17T11:32:37.498Z,95986.56
2018-01-17T11:34:13.980Z,95905.12
2018-01-17T11:35:52.015Z,95972.31
2018-01-17T11:37:28.555Z,95994.71
2018-01-17T11:39:06.196Z,95983.64
2018-01-17T11:40:43.600Z,96104.68
2018-01-17T11:42:20.514Z,96156.47
2018-01-17T11:43:56.978Z,96126.71
2018-01-17T11:45:33.356Z,96196.63
2018-01-17T11:47:10.126Z,96129.68
2018-01-17T11:48:46.928Z,96038.73
2018-01-17T11:50:25.417Z,96051.56
2018-01-17T11:52:02.020Z,96045.56
2018-01-17T11:53:38.586Z,96089.19
2018-01-17T11:55:16.188Z,96162.53
2018-01-17T11:56:52.637Z,96187.16
2018-01-17T11:58:29.072Z,96140.08
2018-01-17T12:00:15.192Z,96001.20
2018-01-17T12:01:52.024Z,96033.17
2018-01-17T12:03:28.431Z,96129.22
2018-01-17T12:05:04.988Z,96097.80
2018-01-17T12:06:41.434Z,96030.97
2018-01-17T12:08:18.217Z,96041.33
2018-01-17T12:09:54.678Z,95974.02
2018-01-17T12:11:34.666Z,95837.60
2018-01-17T12:13:11.940Z,95884.44
2018-01-17T12:14:48.816Z,95999.55
2018-01-17T12:16:25.250Z,95983.13
2018-01-17T12:18:02.002Z,96001.20
2018-01-17T12:19:39.270Z,95996.91
2018-01-17T12:21:16.856Z,96065.51
2018-01-17T12:22:53.357Z,96134.48
2018-01-17T12:24:29.823Z,96215.23
2018-01-17T12:26:06.442Z,96241.91
2018-01-17T12:27:43.361Z,96245.05
2018-01-17T12:29:19.808Z,96179.34
2018-01-17T12:30:57.057Z,96288.24
2018-01-17T12:32:33.527Z,96353.82
2018-01-17T12:35:41.922Z,96280.84
2018-01-17T12:37:19.238Z,96294.70
2018-01-17T12:38:55.564Z,96359.52
2018-01-17T12:40:32.302Z,96394.58
2018-01-17T12:42:08.984Z,96396.28
2018-01-17T12:43:45.316Z,96316.75
2018-01-17T12:45:22.031Z,96359.55
2018-01-17T12:47:01.409Z,96220.80
2018-01-17T12:48:37.850Z,96224.28
2018-01-17T12:50:16.109Z,96242.06
2018-01-17T12:51:52.593Z,96318.50
2018-01-17T12:53:29.216Z,96418.81
2018-01-17T12:55:05.932Z,96516.91
2018-01-17T12:56:42.451Z,96545.97
2018-01-17T12:58:18.967Z,96588.74
2018-01-17T12:59:55.628Z,96606.42
2018-01-17T13:01:32.333Z,96445.18
2018-01-17T13:03:09.424Z,96394.16
2018-01-17T13:04:45.775Z,96366.91
2018-01-17T13:06:22.592Z,96427.48
2018-01-17T13:07:59.167Z,96375.19
2018-01-17T13:09:35.579Z,96531.55
2018-01-17T13:11:12.122Z,96620.25
2018-01-17T13:12:49.751Z,96627.23
2018-01-17T13:14:26.864Z,96527.72
2018-01-17T13:16:03.331Z,96559.80
2018-01-17T13:17:39.975Z,96610.33
2018-01-17T13:19:18.635Z,96633.70
2018-01-17T13:20:54.964Z,96636.73
2018-01-17T13:22:32.199Z,96562.43
2018-01-17T13:24:08.864Z,96538.13
2018-01-17T13:25:45.605Z,96676.66
2018-01-17T13:27:22.077Z,96631.03
2018-01-17T13:28:58.406Z,96595.68
2018-01-17T13:30:35.727Z,96504.36
2018-01-17T13:32:12.768Z,96514.39
2018-01-17T13:33:49.905Z,96538.91
2018-01-17T13:35:26.353Z,96506.09
2018-01-17T13:37:02.780Z,96510.55
2018-01-17T13:38:39.492Z,96549.41
2018-01-17T13:40:15.946Z,96511.33
2018-01-17T13:41:53.828Z,96494.94
2018-01-17T13:43:31.112Z,96476.70
2018-01-17T13:45:08.316Z,96293.93
2018-01-17T13:46:47.327Z,96334.55
2018-01-17T13:48:23.944Z,96348.33
2018-01-17T13:50:01.022Z,96399.80
2018-01-17T13:51:38.212Z,96408.83
2018-01-17T13:53:15.419Z,96475.89
2018-01-17T13:54:51.795Z,96462.06
2018-01-17T13:56:29.417Z,96339.74
2018-01-17T13:58:05.988Z,96374.30
2018-01-17T13:59:42.383Z,96361.83
2018-01-17T14:01:19.589Z,96381.65
2018-01-17T14:02:56.752Z,96296.14
2018-01-17T14:04:33.971Z,96304.26
2018-01-17T14:06:10.568Z,96237.81
2018-01-17T14:07:46.997Z,96266.77
2018-01-17T14:09:23.984Z,96214.42
2018-01-17T14:11:00.579Z,96230.47
2018-01-17T14:12:37.316Z,96252.91
2018-01-17T14:14:13.671Z,96159.64
2018-01-17T14:15:51.413Z,96098.34
2018-01-17T14:17:29.621Z,96045.27
2018-01-17T14:19:07.488Z,96023.77
2018-01-17T14:20:44.194Z,96062.58
2018-01-17T14:22:22.087Z,96121.65
2018-01-17T14:23:58.862Z,96160.03
2018-01-17T14:25:35.847Z,96251.70
2018-01-17T14:27:12.232Z,96303.02
2018-01-17T14:28:49.989Z,96368.27
2018-01-17T14:30:28.935Z,96418.39
2018-01-17T14:32:05.783Z,96479.37
2018-01-17T14:33:42.462Z,96521.83
2018-01-17T14:35:18.935Z,96522.67
2018-01-17T14:36:55.311Z,96501.45
2018-01-17T14:38:31.753Z,96495.41
2018-01-17T14:40:08.483Z,96397.17
2018-01-17T14:41:46.499Z,96270.68
2018-01-17T14:43:23.140Z,96160.88
2018-01-17T14:45:00.095Z,96122.11
2018-01-17T14:46:36.662Z,96091.90
2018-01-17T14:48:13.665Z,96112.27
2018-01-17T14:49:50.569Z,96091.90
2018-01-17T14:51:26.953Z,96112.69
2018-01-17T14:53:03.418Z,96152.76
2018-01-17T14:54:40.394Z,96222.63
2018-01-17T14:56:16.982Z,96305.53
2018-01-17T14:57:53.928Z,96356.14
2018-01-17T14:59:30.491Z,96389.01
2018-01-17T15:01:08.396Z,96414.52
2018-01-17T15:02:44.965Z,96434.53
2018-01-17T15:04:21.503Z,96435.38
2018-01-17T15:05:58.081Z,96457.77
2018-01-17T15:07:35.934Z,96533.48
2018-01-17T15:09:13.159Z,96613.55
2018-01-17T15:10:50.996Z,96697.02
2018-01-17T15:12:28.324Z,96761.10
2018-01-17T15:14:05.095Z,96776.23
2018-01-17T15:15:42.136Z,96770.14
2018-01-17T15:17:20.063Z,96691.40
2018-01-17T15:18:58.673Z,96569.80
2018-01-17T15:20:35.348Z,96522.25
2018-01-17T15:22:12.415Z,96553.79
2018-01-17T15:23:48.915Z,96611.77
2018-01-17T15:25:26.718Z,96671.47
2018-01-17T15:27:03.418Z,96695.78
2018-01-17T15:28:40.161Z,96723.05
2018-01-17T15:30:19.217Z,96675.03
2018-01-17T15:31:56.685Z,96727.81
2018-01-17T15:33:33.454Z,96800.17
2018-01-17T15:35:11.479Z,96735.61
2018-01-17T15:36:48.028Z,96696.17
2018-01-17T15:38:25.685Z,96638.09
2018-01-17T15:40:02.802Z,96618.23
2018-01-17T15:41:40.170Z,96617.85
2018-01-17T15:43:17.602Z,96556.47
2018-01-17T15:44:55.126Z,96600.99
2018-01-17T15:46:31.848Z,96566.42
2018-01-17T15:48:08.867Z,96584.17
2018-01-17T15:49:45.534Z,96656.81
2018-01-17T15:51:22.622Z,96648.98
2018-01-17T15:53:01.180Z,96639.09
2018-01-17T15:54:38.700Z,96699.27
2018-01-17T15:56:15.534Z,96704.36
2018-01-17T15:57:53.323Z,96712.73
2018-01-17T15:59:30.011Z,96587.50
2018-01-17T16:01:07.045Z,96467.41
2018-01-17T16:02:44.703Z,96405.53
2018-01-17T16:04:21.808Z,96444.02
2018-01-17T16:05:58.586Z,96493.36
2018-01-17T16:07:35.560Z,96525.66
2018-01-17T16:09:13.131Z,96535.27
2018-01-17T16:10:50.203Z,96600.95
2018-01-17T16:12:28.551Z,96681.12
2018-01-17T16:14:06.179Z,96642.50
2018-01-17T16:15:43.162Z,96723.97
2018-01-17T16:17:20.315Z,96765.09
2018-01-17T16:18:59.576Z,96765.44
2018-01-17T16:20:36.536Z,96751.24
2018-01-17T16:22:13.267Z,96730.02
2018-01-17T16:23:50.053Z,96720.52
2018-01-17T16:25:26.854Z,96679.41
2018-01-17T16:27:03.591Z,96770.33
2018-01-17T16:28:40.419Z,96810.61
2018-01-17T16:30:20.913Z,96775.18
2018-01-17T16:31:57.809Z,96680.23
2018-01-17T16:33:34.362Z,96745.19
2018-01-17T16:35:10.964Z,96709.27
2018-01-17T16:36:47.904Z,96683.67
2018-01-17T16:38:24.495Z,96756.45
2018-01-17T16:40:01.789Z,96758.19
2018-01-17T16:41:38.419Z,96842.70
2018-01-17T16:43:16.016Z,96856.53
2018-01-17T16:44:53.308Z,96875.63
2018-01-17T16:46:29.977Z,96846.55
2018-01-17T16:48:06.785Z,96864.83
2018-01-17T16:49:46.119Z,96887.31
2018-01-17T16:51:22.971Z,96834.02
2018-01-17T16:52:59.532Z,96812.78
2018-01-17T16:54:36.939Z,96887.34
2018-01-17T16:56:14.744Z,96889.41
2018-01-17T16:57:52.577Z,96791.52
2018-01-17T16:59:29.170Z,96679.84
2018-01-17T17:01:06.595Z,96704.03
2018-01-17T17:02:43.794Z,96703.19
2018-01-17T17:04:21.641Z,96772.47
2018-01-17T17:05:58.339Z,96724.02
2018-01-17T17:07:35.014Z,96668.20
2018-01-17T17:09:14.419Z,96656.81
2018-01-17T17:10:51.899Z,96616.26
2018-01-17T17:12:28.504Z,96599.75
2018-01-17T17:14:05.552Z,96453.70
2018-01-17T17:15:42.979Z,96528.45
2018-01-17T17:18:53.504Z,96547.86
2018-01-17T17:20:31.009Z,96493.36
2018-01-17T17:22:12.800Z,96489.45
2018-01-17T17:23:56.355Z,96582.85
2018-01-17T17:25:33.404Z,96663.36
2018-01-17T17:27:10.406Z,96712.69
2018-01-17T17:28:47.792Z,96725.68
2018-01-17T17:30:26.931Z,96742.63
2018-01-17T17:32:03.855Z,96659.05
2018-01-17T17:33:41.078Z,96665.14
2018-01-17T17:35:18.685Z,96745.16
2018-01-17T17:36:55.467Z,96807.97
2018-01-17T17:38:33.300Z,96856.17
2018-01-17T17:40:10.078Z,96823.22
2018-01-17T17:41:47.044Z,96728.31
2018-01-17T17:43:23.481Z,96666.92
2018-01-17T17:44:59.947Z,96564.30
2018-01-17T17:46:36.974Z,96627.93
2018-01-17T17:48:14.187Z,96742.17
2018-01-17T17:49:50.627Z,96751.70
2018-01-17T17:51:27.199Z,96825.47
2018-01-17T17:53:03.696Z,96750.04
2018-01-17T17:54:41.185Z,96775.61
2018-01-17T17:56:19.521Z,96872.24
2018-01-17T17:57:56.215Z,96913.86
2018-01-17T17:59:32.917Z,96916.00
2018-01-17T18:01:10.584Z,96841.92
2018-01-17T18:02:47.255Z,96847.13
2018-01-17T18:04:23.960Z,96829.39
2018-01-17T18:06:00.602Z,96750.47
2018-01-17T18:07:37.627Z,96807.30
2018-01-17T18:09:16.043Z,96807.58
2018-01-17T18:10:52.638Z,96776.96
2018-01-17T18:12:29.311Z,96753.95
2018-01-17T18:14:06.686Z,96791.20
2018-01-17T18:15:43.555Z,96921.17
2018-01-17T18:17:20.864Z,96970.65
2018-01-17T18:18:57.533Z,96957.28
2018-01-17T18:20:35.368Z,96917.78
2018-01-17T18:22:12.116Z,96783.91
2018-01-17T18:23:48.859Z,96704.54
2018-01-17T18:25:25.698Z,96611.49
2018-01-17T18:27:03.016Z,96658.70
2018-01-17T18:30:12.469Z,96590.76
2018-01-17T18:32:01.980Z,96739.33
2018-01-17T18:33:39.172Z,96706.75
2018-01-17T18:35:16.806Z,96609.41
2018-01-17T18:36:53.817Z,96751.36
2018-01-17T18:38:30.316Z,96851.08
2018-01-17T18:40:08.679Z,96695.58
2018-01-17T18:41:46.111Z,96717.65
2018-01-17T18:43:26.362Z,96732.70
2018-01-17T18:45:12.746Z,96732.78
2018-01-17T18:46:53.887Z,96776.45
2018-01-17T18:48:31.057Z,96802.03
2018-01-17T18:50:08.003Z,96822.48
2018-01-17T18:51:48.104Z,96753.87
2018-01-17T18:53:35.452Z,96718.00
2018-01-17T18:55:21.209Z,96646.08
2018-01-17T18:56:58.326Z,96582.94
2018-01-17T18:58:34.970Z,96630.56
2018-01-17T19:00:12.342Z,96718.43
2018-01-17T19:01:51.802Z,96813.64
2018-01-17T19:03:29.455Z,96739.68
2018-01-17T19:06:43.090Z,96731.07
2018-01-17T19:08:19.814Z,96768.70
2018-01-17T19:09:56.950Z,96760.01